NVA1003 SAMR-SAME
Flight info
| Callsign | NVA1003 |
|---|---|
| Flight time | 0h 34m |
| Altitude | 20000 |
| Route | OPTUL DCT ESITO ESITO1Q |
| Aircraft | B190/M-SDFGRY/S |
Departure
| Time | 2026-05-09 12:58 |
|---|---|
| Airport | Suboficial Ay Santiago Germano Airport (SAMR) |
Arrival
| Time | 2026-05-09 13:33 |
|---|---|
| Airport | Governor Francisco Gabrielli International Airport (SAME) |
| Time | Latitude | Longitude | Altitude | Speed | Heading |
|---|---|---|---|---|---|
| 2026-05-09 12:47 | -34.59058 | -68.40061 | 2463 ft | 0 kts | 5° |
| 2026-05-09 12:54 | -34.59057 | -68.40061 | 2463 ft | 0 kts | 5° |
| 2026-05-09 12:55 | -34.59052 | -68.40060 | 2463 ft | 0 kts | 353° |
| 2026-05-09 12:55 | -34.58944 | -68.40061 | 2461 ft | 20 kts | 18° |
| 2026-05-09 12:55 | -34.58861 | -68.40021 | 2460 ft | 11 kts | 38° |
| 2026-05-09 12:55 | -34.58870 | -68.39914 | 2457 ft | 16 kts | 109° |
| 2026-05-09 12:56 | -34.58908 | -68.39774 | 2453 ft | 16 kts | 108° |
| 2026-05-09 12:56 | -34.58943 | -68.39652 | 2451 ft | 15 kts | 108° |
| 2026-05-09 12:56 | -34.58975 | -68.39531 | 2447 ft | 14 kts | 106° |
| 2026-05-09 12:56 | -34.59007 | -68.39419 | 2445 ft | 13 kts | 111° |
| 2026-05-09 12:57 | -34.59038 | -68.39319 | 2443 ft | 12 kts | 111° |
| 2026-05-09 12:57 | -34.59072 | -68.39205 | 2440 ft | 14 kts | 111° |
| 2026-05-09 12:57 | -34.59067 | -68.39191 | 2440 ft | 3 kts | 284° |
| 2026-05-09 12:57 | -34.59059 | -68.39228 | 2441 ft | 17 kts | 287° |
| 2026-05-09 12:58 | -34.58956 | -68.39591 | 2449 ft | 75 kts | 289° |
| 2026-05-09 12:58 | -34.58711 | -68.40487 | 2469 ft | 139 kts | 288° |
| 2026-05-09 12:58 | -34.58367 | -68.41724 | 2682 ft | 160 kts | 288° |
| 2026-05-09 12:58 | -34.58056 | -68.42965 | 3342 ft | 150 kts | 285° |
| 2026-05-09 12:59 | -34.57669 | -68.44123 | 3960 ft | 147 kts | 302° |
| 2026-05-09 12:59 | -34.56990 | -68.45094 | 4480 ft | 151 kts | 319° |
| 2026-05-09 12:59 | -34.56155 | -68.45824 | 5052 ft | 149 kts | 336° |
| 2026-05-09 12:59 | -34.55073 | -68.46053 | 5426 ft | 162 kts | 352° |
| 2026-05-09 13:00 | -34.54061 | -68.46195 | 6240 ft | 141 kts | 6° |
| 2026-05-09 13:00 | -34.53008 | -68.46033 | 6556 ft | 155 kts | 0° |
| 2026-05-09 13:00 | -34.51982 | -68.45868 | 7173 ft | 146 kts | 6° |
| 2026-05-09 13:00 | -34.50974 | -68.45860 | 7603 ft | 151 kts | 353° |
| 2026-05-09 13:01 | -34.49887 | -68.46021 | 7926 ft | 161 kts | 352° |
| 2026-05-09 13:01 | -34.48730 | -68.46210 | 8246 ft | 170 kts | 345° |
| 2026-05-09 13:01 | -34.47664 | -68.46918 | 8580 ft | 176 kts | 325° |
| 2026-05-09 13:01 | -34.46644 | -68.47753 | 8885 ft | 180 kts | 327° |
| 2026-05-09 13:02 | -34.45561 | -68.48558 | 9192 ft | 182 kts | 329° |
| 2026-05-09 13:02 | -34.44443 | -68.49350 | 9499 ft | 184 kts | 330° |
| 2026-05-09 13:02 | -34.43308 | -68.50137 | 9767 ft | 187 kts | 330° |
| 2026-05-09 13:02 | -34.42146 | -68.50937 | 10026 ft | 190 kts | 330° |
| 2026-05-09 13:03 | -34.40995 | -68.51726 | 10277 ft | 192 kts | 330° |
| 2026-05-09 13:03 | -34.39811 | -68.52537 | 10532 ft | 194 kts | 330° |
| 2026-05-09 13:03 | -34.38623 | -68.53351 | 10785 ft | 195 kts | 330° |
| 2026-05-09 13:03 | -34.37436 | -68.54163 | 11037 ft | 195 kts | 330° |
| 2026-05-09 13:04 | -34.36235 | -68.54985 | 11290 ft | 196 kts | 330° |
| 2026-05-09 13:04 | -34.35030 | -68.55809 | 11543 ft | 196 kts | 330° |
| 2026-05-09 13:04 | -34.33820 | -68.56636 | 11693 ft | 201 kts | 330° |
| 2026-05-09 13:04 | -34.32576 | -68.57486 | 11804 ft | 207 kts | 330° |
| 2026-05-09 13:05 | -34.31308 | -68.58352 | 11911 ft | 211 kts | 330° |
| 2026-05-09 13:05 | -34.29991 | -68.59252 | 12018 ft | 214 kts | 330° |
| 2026-05-09 13:05 | -34.28674 | -68.60151 | 12123 ft | 217 kts | 330° |
| 2026-05-09 13:05 | -34.27341 | -68.61060 | 12227 ft | 218 kts | 330° |
| 2026-05-09 13:06 | -34.26026 | -68.61958 | 12328 ft | 220 kts | 330° |
| 2026-05-09 13:06 | -34.24668 | -68.62884 | 12431 ft | 220 kts | 330° |
| 2026-05-09 13:06 | -34.23323 | -68.63801 | 12532 ft | 221 kts | 330° |
| 2026-05-09 13:06 | -34.21967 | -68.64724 | 12634 ft | 221 kts | 330° |
| 2026-05-09 13:07 | -34.20610 | -68.65649 | 12735 ft | 221 kts | 331° |
| 2026-05-09 13:07 | -34.19267 | -68.66563 | 12834 ft | 221 kts | 331° |
| 2026-05-09 13:07 | -34.17917 | -68.67481 | 12934 ft | 221 kts | 331° |
| 2026-05-09 13:07 | -34.16565 | -68.68404 | 13034 ft | 221 kts | 331° |
| 2026-05-09 13:08 | -34.15212 | -68.69343 | 13134 ft | 220 kts | 330° |
| 2026-05-09 13:08 | -34.13875 | -68.70283 | 13234 ft | 220 kts | 330° |
| 2026-05-09 13:08 | -34.12553 | -68.71210 | 13332 ft | 220 kts | 331° |
| 2026-05-09 13:08 | -34.11213 | -68.72145 | 13432 ft | 219 kts | 331° |
| 2026-05-09 13:09 | -34.09878 | -68.73074 | 13531 ft | 219 kts | 331° |
| 2026-05-09 13:09 | -34.08567 | -68.73986 | 13629 ft | 218 kts | 331° |
| 2026-05-09 13:09 | -34.07233 | -68.74912 | 13725 ft | 218 kts | 331° |
| 2026-05-09 13:09 | -34.05911 | -68.75829 | 13824 ft | 217 kts | 331° |
| 2026-05-09 13:10 | -34.04596 | -68.76740 | 13922 ft | 217 kts | 331° |
| 2026-05-09 13:10 | -34.03281 | -68.77651 | 14020 ft | 217 kts | 331° |
| 2026-05-09 13:10 | -34.01957 | -68.78568 | 14120 ft | 217 kts | 331° |
| 2026-05-09 13:10 | -34.00636 | -68.79482 | 14219 ft | 217 kts | 331° |
| 2026-05-09 13:11 | -33.99328 | -68.80387 | 14317 ft | 216 kts | 331° |
| 2026-05-09 13:11 | -33.98005 | -68.81302 | 14416 ft | 216 kts | 331° |
| 2026-05-09 13:11 | -33.96691 | -68.82210 | 14514 ft | 216 kts | 331° |
| 2026-05-09 13:11 | -33.95374 | -68.83121 | 14612 ft | 215 kts | 331° |
| 2026-05-09 13:12 | -33.94077 | -68.84016 | 14709 ft | 215 kts | 331° |
| 2026-05-09 13:12 | -33.92776 | -68.84915 | 14806 ft | 215 kts | 331° |
| 2026-05-09 13:12 | -33.91461 | -68.85823 | 14905 ft | 214 kts | 331° |
| 2026-05-09 13:12 | -33.90088 | -68.86437 | 14997 ft | 212 kts | 354° |
| 2026-05-09 13:13 | -33.88611 | -68.86479 | 15111 ft | 212 kts | 0° |
| 2026-05-09 13:13 | -33.87129 | -68.86432 | 15213 ft | 211 kts | 1° |
| 2026-05-09 13:13 | -33.85646 | -68.86355 | 15316 ft | 211 kts | 2° |
| 2026-05-09 13:13 | -33.84184 | -68.86259 | 15417 ft | 211 kts | 2° |
| 2026-05-09 13:14 | -33.82703 | -68.86148 | 15520 ft | 210 kts | 2° |
| 2026-05-09 13:14 | -33.81222 | -68.86029 | 15624 ft | 211 kts | 2° |
| 2026-05-09 13:16 | -33.70974 | -68.85126 | 16429 ft | 215 kts | 2° |
| 2026-05-09 13:16 | -33.69454 | -68.84991 | 16430 ft | 219 kts | 2° |
| 2026-05-09 13:16 | -33.67890 | -68.84852 | 16429 ft | 223 kts | 2° |
| 2026-05-09 13:16 | -33.66351 | -68.84714 | 16428 ft | 225 kts | 2° |
| 2026-05-09 13:17 | -33.64753 | -68.84570 | 16428 ft | 227 kts | 2° |
| 2026-05-09 13:17 | -33.63160 | -68.84426 | 16427 ft | 229 kts | 2° |
| 2026-05-09 13:17 | -33.61548 | -68.84281 | 16427 ft | 230 kts | 2° |
| 2026-05-09 13:17 | -33.59921 | -68.84134 | 16426 ft | 231 kts | 2° |
| 2026-05-09 13:18 | -33.58325 | -68.83991 | 16426 ft | 232 kts | 2° |
| 2026-05-09 13:18 | -33.56691 | -68.83843 | 16426 ft | 232 kts | 2° |
| 2026-05-09 13:18 | -33.55062 | -68.83695 | 16426 ft | 233 kts | 2° |
| 2026-05-09 13:18 | -33.53451 | -68.83549 | 16426 ft | 233 kts | 2° |
| 2026-05-09 13:19 | -33.51812 | -68.83401 | 16426 ft | 233 kts | 2° |
| 2026-05-09 13:19 | -33.50183 | -68.83253 | 16425 ft | 233 kts | 2° |
| 2026-05-09 13:19 | -33.48566 | -68.83108 | 16425 ft | 233 kts | 2° |
| 2026-05-09 13:19 | -33.46950 | -68.82961 | 16425 ft | 233 kts | 2° |
| 2026-05-09 13:20 | -33.45307 | -68.82813 | 16425 ft | 234 kts | 2° |
| 2026-05-09 13:20 | -33.43660 | -68.82664 | 16425 ft | 234 kts | 2° |
| 2026-05-09 13:20 | -33.42036 | -68.82518 | 16425 ft | 234 kts | 2° |
| 2026-05-09 13:20 | -33.40435 | -68.82374 | 16425 ft | 234 kts | 2° |
| 2026-05-09 13:21 | -33.38778 | -68.82224 | 16425 ft | 234 kts | 2° |
| 2026-05-09 13:21 | -33.37170 | -68.82079 | 16425 ft | 234 kts | 2° |
| 2026-05-09 13:21 | -33.35549 | -68.81933 | 16419 ft | 234 kts | 2° |
| 2026-05-09 13:21 | -33.33828 | -68.81782 | 16058 ft | 248 kts | 2° |
| 2026-05-09 13:22 | -33.32108 | -68.81626 | 16003 ft | 247 kts | 3° |
| 2026-05-09 13:22 | -33.30386 | -68.81448 | 15809 ft | 252 kts | 4° |
| 2026-05-09 13:22 | -33.28591 | -68.81261 | 15563 ft | 257 kts | 4° |
| 2026-05-09 13:23 | -33.21843 | -68.80637 | 14243 ft | 222 kts | 4° |
| 2026-05-09 13:23 | -33.20327 | -68.80500 | 13875 ft | 213 kts | 4° |
| 2026-05-09 13:24 | -33.18914 | -68.80373 | 13519 ft | 204 kts | 4° |
| 2026-05-09 13:24 | -33.17507 | -68.80247 | 13150 ft | 196 kts | 4° |
| 2026-05-09 13:24 | -33.16185 | -68.80128 | 12792 ft | 190 kts | 4° |
| 2026-05-09 13:24 | -33.14903 | -68.80013 | 12435 ft | 184 kts | 4° |
| 2026-05-09 13:25 | -33.13642 | -68.79900 | 12074 ft | 179 kts | 4° |
| 2026-05-09 13:25 | -33.12405 | -68.79810 | 11719 ft | 177 kts | 1° |
| 2026-05-09 13:25 | -33.10081 | -68.79762 | 11040 ft | 173 kts | 1° |
| 2026-05-09 13:26 | -33.07447 | -68.79720 | 10201 ft | 163 kts | 1° |
| 2026-05-09 13:26 | -33.06345 | -68.79703 | 9730 ft | 156 kts | 1° |
| 2026-05-09 13:26 | -33.05277 | -68.79698 | 9219 ft | 151 kts | 359° |
| 2026-05-09 13:27 | -33.04244 | -68.79701 | 8711 ft | 148 kts | 0° |
| 2026-05-09 13:27 | -33.03229 | -68.79697 | 8202 ft | 145 kts | 0° |
| 2026-05-09 13:27 | -33.02229 | -68.79678 | 7693 ft | 142 kts | 1° |
| 2026-05-09 13:27 | -33.01263 | -68.79658 | 7179 ft | 137 kts | 1° |
| 2026-05-09 13:28 | -33.00337 | -68.79639 | 6666 ft | 132 kts | 1° |
| 2026-05-09 13:28 | -32.99432 | -68.79621 | 6151 ft | 128 kts | 1° |
| 2026-05-09 13:28 | -32.98554 | -68.79604 | 5642 ft | 124 kts | 1° |
| 2026-05-09 13:28 | -32.97719 | -68.79588 | 5186 ft | 122 kts | 1° |
| 2026-05-09 13:29 | -32.96865 | -68.79573 | 4851 ft | 124 kts | 0° |
| 2026-05-09 13:29 | -32.95972 | -68.79556 | 4667 ft | 128 kts | 1° |
| 2026-05-09 13:29 | -32.95067 | -68.79536 | 4478 ft | 130 kts | 1° |
| 2026-05-09 13:29 | -32.94145 | -68.79515 | 4284 ft | 132 kts | 1° |
| 2026-05-09 13:30 | -32.93235 | -68.79496 | 4097 ft | 133 kts | 1° |
| 2026-05-09 13:30 | -32.92289 | -68.79476 | 3903 ft | 134 kts | 1° |
| 2026-05-09 13:30 | -32.91345 | -68.79457 | 3713 ft | 135 kts | 1° |
| 2026-05-09 13:30 | -32.90407 | -68.79437 | 3525 ft | 135 kts | 1° |
| 2026-05-09 13:31 | -32.89468 | -68.79418 | 3336 ft | 133 kts | 1° |
| 2026-05-09 13:31 | -32.88543 | -68.79401 | 3153 ft | 130 kts | 1° |
| 2026-05-09 13:31 | -32.87638 | -68.79366 | 2976 ft | 129 kts | 4° |
| 2026-05-09 13:31 | -32.86757 | -68.79332 | 2810 ft | 127 kts | 0° |
| 2026-05-09 13:32 | -32.85862 | -68.79327 | 2638 ft | 127 kts | 0° |
| 2026-05-09 13:32 | -32.84096 | -68.79299 | 2330 ft | 118 kts | 359° |
| 2026-05-09 13:32 | -32.83314 | -68.79276 | 2316 ft | 101 kts | 1° |
| 2026-05-09 13:33 | -32.82750 | -68.79279 | 2315 ft | 56 kts | 2° |
| 2026-05-09 13:33 | -32.82561 | -68.79309 | 2315 ft | 9 kts | 295° |
| 2026-05-09 13:33 | -32.82560 | -68.79345 | 2315 ft | 1 kts | 252° |
| 2026-05-09 13:33 | -32.82562 | -68.79354 | 2315 ft | 0 kts | 264° |
| 2026-05-09 13:34 | -32.82563 | -68.79382 | 2315 ft | 7 kts | 261° |
| 2026-05-09 13:34 | -32.82600 | -68.79443 | 2315 ft | 10 kts | 225° |
| 2026-05-09 13:34 | -32.82650 | -68.79510 | 2315 ft | 11 kts | 236° |
| 2026-05-09 13:34 | -32.82674 | -68.79600 | 2315 ft | 11 kts | 267° |
| 2026-05-09 13:35 | -32.82676 | -68.79693 | 2315 ft | 10 kts | 239° |
| 2026-05-09 13:35 | -32.82742 | -68.79707 | 2315 ft | 10 kts | 181° |
| 2026-05-09 13:35 | -32.82818 | -68.79709 | 2315 ft | 11 kts | 181° |
| 2026-05-09 13:35 | -32.82840 | -68.79697 | 2315 ft | 2 kts | 96° |
| 2026-05-09 13:36 | -32.82841 | -68.79663 | 2315 ft | 5 kts | 90° |
| 2026-05-09 13:36 | -32.82841 | -68.79653 | 2315 ft | 0 kts | 90° |